M I D A S
Marine Information and Data Acquisition System
Tripno 1665 of the Zeeleeuw from 2009-03-26 07:33:00 to 2009-03-26 15:56:00
Back to CruiseResearch ActivitiesStationsMapUnderway DataData graphs

EquipmentUnitsComments
TimeDGPSUTC
LatitudeDGPSDM.mWGS84
LongitudeDGPSDM.mWGS84
SpeedMeteo Stationm/sRelative wind speed
DirectionMeteo StationdegRelative wind direction
TemperatureMeteo Stationdeg CelciusAir temperature
PressureMeteo StationPaAtmospheric pressure
HumidityMeteo Station%Relative humidity
Missing or incorrect values are displayed as -999
Metereological data collected by the RV Zeeleeuw from 2009-03-26 07:33:22 to 2009-03-26 15:56:01
                                                                                    Next 1000 lines
Time Latitude Longitude Speed Direction Temperature Pressure Humidity
2009-03-26 07:33:32 51°13.664 2°55.953 3.7 29 7 100490 88
2009-03-26 07:33:37 51°13.665 2°55.949 2.8 29 7 100490 88
2009-03-26 07:33:42 51°13.667 2°55.944 3.5 30 7 100490 88
2009-03-26 07:33:47 51°13.668 2°55.938 3.9 22 7 100480 88
2009-03-26 07:33:52 51°13.67 2°55.933 2.9 31 7 100480 88
2009-03-26 07:33:57 51°13.672 2°55.928 3.1 36 7 100480 88
2009-03-26 07:34:02 51°13.674 2°55.922 2.5 31 7 100480 88
2009-03-26 07:34:07 51°13.676 2°55.916 3.5 28 7 100490 88
2009-03-26 07:34:12 51°13.678 2°55.911 3.8 38 7 100490 88
2009-03-26 07:34:17 51°13.679 2°55.905 4.7 36 7 100480 89
2009-03-26 07:34:22 51°13.681 2°55.898 5 38 7 100480 89
2009-03-26 07:34:27 51°13.683 2°55.892 4.4 28 7.1 100480 89
2009-03-26 07:34:32 51°13.684 2°55.885 4.6 26 7.1 100480 89
2009-03-26 07:34:37 51°13.686 2°55.878 4.5 37 7 100480 89
2009-03-26 07:34:42 51°13.688 2°55.871 3.7 30 7 100480 89
2009-03-26 07:34:47 51°13.689 2°55.865 3.8 33 7.1 100480 89
2009-03-26 07:34:52 51°13.691 2°55.858 4.6 22 7.1 100480 89
2009-03-26 07:34:57 51°13.692 2°55.851 4.2 25 7.1 100480 88
2009-03-26 07:35:02 51°13.693 2°55.844 3.5 28 7.1 100480 88
2009-03-26 07:35:07 51°13.694 2°55.837 3.3 30 7 100480 88
2009-03-26 07:35:12 51°13.695 2°55.83 2.9 41 7 100480 88
2009-03-26 07:35:17 51°13.696 2°55.823 2.8 30 7 100480 89
2009-03-26 07:35:22 51°13.696 2°55.817 2.7 33 7 100480 89
2009-03-26 07:35:27 51°13.697 2°55.81 2.5 40 7.1 100480 88
2009-03-26 07:35:32 51°13.698 2°55.804 2.4 52 7.1 100480 88
2009-03-26 07:35:37 51°13.698 2°55.798 2.2 20 7.1 100480 88
2009-03-26 07:35:42 51°13.698 2°55.792 4.4 54 7.1 100480 88
2009-03-26 07:35:47 51°13.698 2°55.786 4.4 42 7 100480 89
2009-03-26 07:35:52 51°13.698 2°55.781 4.1 45 7 100480 89
2009-03-26 07:35:57 51°13.698 2°55.776 4.7 40 7 100490 89
2009-03-26 07:36:02 51°13.698 2°55.771 5 40 7 100490 89
2009-03-26 07:36:06 51°13.698 2°55.768 3.7 41 7.1 100480 89
2009-03-26 07:36:11 51°13.698 2°55.766 3.5 44 7.1 100480 89
2009-03-26 07:36:17 51°13.698 2°55.765 3.1 38 7.1 100480 89
2009-03-26 07:36:22 51°13.699 2°55.764 4 38 7.1 100480 89
2009-03-26 07:36:27 51°13.7 2°55.764 4.1 38 7.1 100480 89
2009-03-26 07:36:32 51°13.7 2°55.763 3.4 41 7.1 100480 89
2009-03-26 07:36:37 51°13.701 2°55.763 3.3 34 7.1 100480 89
2009-03-26 07:36:42 51°13.702 2°55.763 3.6 38 7.1 100480 89
2009-03-26 07:36:47 51°13.703 2°55.763 4.1 41 7.1 100480 89
2009-03-26 07:36:52 51°13.704 2°55.762 2.5 51 7.1 100480 89
2009-03-26 07:36:57 51°13.705 2°55.762 2.9 27 7.1 100480 89
2009-03-26 07:37:02 51°13.705 2°55.762 2.9 51 7.1 100480 89
2009-03-26 07:37:07 51°13.706 2°55.761 3.4 27 7.1 100480 89
2009-03-26 07:37:12 51°13.706 2°55.76 2.7 50 7.1 100480 89
2009-03-26 07:37:17 51°13.706 2°55.759 3.5 25 7.1 100480 89
2009-03-26 07:37:22 51°13.706 2°55.758 5.9 51 7.1 100480 89
2009-03-26 07:37:27 51°13.705 2°55.757 4.5 22 7.1 100490 89
2009-03-26 07:37:32 51°13.705 2°55.755 3.3 57 7.1 100490 89
2009-03-26 07:37:37 51°13.704 2°55.754 2.7 26 7.1 100490 89
2009-03-26 07:37:42 51°13.704 2°55.753 3 52 7.1 100490 89
2009-03-26 07:37:47 51°13.703 2°55.752 2.4 26 7.1 100490 89
2009-03-26 07:37:51 51°13.703 2°55.751 2.5 52 7.1 100490 89
2009-03-26 07:37:57 51°13.703 2°55.751 2.8 22 7.1 100490 89
2009-03-26 07:38:01 51°13.704 2°55.75 2 49 7.1 100490 89
2009-03-26 07:38:06 51°13.705 2°55.75 1.1 21 7.1 100490 89
2009-03-26 07:38:11 51°13.706 2°55.749 2.3 51 7.1 100490 89
2009-03-26 07:38:15 51°13.708 2°55.748 2.4 19 7.1 100490 89
2009-03-26 07:38:21 51°13.71 2°55.746 1.6 51 7.1 100490 89
2009-03-26 07:38:26 51°13.712 2°55.744 2.6 269 7.1 100490 89
2009-03-26 07:38:31 51°13.715 2°55.741 3.2 307 7.1 100490 89
2009-03-26 07:38:36 51°13.719 2°55.737 3.6 270 7.1 100490 89
2009-03-26 07:38:42 51°13.724 2°55.731 2.9 52 7.1 100490 89
2009-03-26 07:38:47 51°13.73 2°55.726 3 24 7.2 100490 89
2009-03-26 07:38:52 51°13.736 2°55.719 3.5 53 7.2 100490 89
2009-03-26 07:38:57 51°13.742 2°55.713 2.6 18 7.1 100490 89
2009-03-26 07:39:02 51°13.749 2°55.706 1.4 57 7.1 100490 89
2009-03-26 07:39:06 51°13.755 2°55.7 1 10 7.2 100490 89
2009-03-26 07:39:11 51°13.763 2°55.693 1.8 305 7.2 100490 89
2009-03-26 07:39:16 51°13.771 2°55.685 2.4 327 7.2 100490 88
2009-03-26 07:39:21 51°13.779 2°55.677 2.7 322 7.2 100490 88
2009-03-26 07:39:26 51°13.788 2°55.67 2.3 339 7.2 100490 88
2009-03-26 07:39:30 51°13.795 2°55.663 2 304 7.2 100490 88
2009-03-26 07:39:35 51°13.804 2°55.656 1.4 23 7.2 100480 88
2009-03-26 07:39:40 51°13.813 2°55.648 0.8 58 7.2 100480 88
2009-03-26 07:39:44 51°13.821 2°55.643 1 263 7.2 100490 88
2009-03-26 07:39:50 51°13.833 2°55.634 2.2 305 7.2 100490 88
2009-03-26 07:39:54 51°13.84 2°55.628 3.6 23 7.2 100490 88
2009-03-26 07:39:59 51°13.85 2°55.62 1.9 303 7.2 100490 88
2009-03-26 07:40:03 51°13.858 2°55.614 2.7 24 7.2 100490 88
2009-03-26 07:40:08 51°13.868 2°55.606 2.2 310 7.2 100490 88
2009-03-26 07:40:14 51°13.88 2°55.597 2.6 22 7.2 100490 89
2009-03-26 07:40:18 51°13.889 2°55.591 3.4 305 7.2 100490 89
2009-03-26 07:40:23 51°13.899 2°55.582 4.8 323 7.2 100490 88
2009-03-26 07:40:28 51°13.91 2°55.574 5 309 7.2 100490 88
2009-03-26 07:40:34 51°13.923 2°55.564 2.3 264 7.2 100480 89
2009-03-26 07:40:38 51°13.931 2°55.558 3.2 310 7.2 100480 89
2009-03-26 07:40:43 51°13.942 2°55.55 2.7 25 7.2 100480 89
2009-03-26 07:40:49 51°13.956 2°55.541 1.1 312 7.2 100480 89
2009-03-26 07:40:53 51°13.965 2°55.535 3.9 316 7.2 100480 88
2009-03-26 07:40:58 51°13.976 2°55.527 2.7 305 7.2 100480 88
2009-03-26 07:41:03 51°13.987 2°55.518 2.3 26 7.2 100480 88
2009-03-26 07:41:09 51°14 2°55.508 3.6 302 7.2 100480 88
2009-03-26 07:41:13 51°14.009 2°55.502 3.2 19 7.2 100480 89
2009-03-26 07:41:18 51°14.02 2°55.494 2.6 306 7.2 100480 89
2009-03-26 07:41:22 51°14.029 2°55.487 3.2 23 7.2 100480 89
2009-03-26 07:41:28 51°14.043 2°55.477 4.4 310 7.2 100480 89
2009-03-26 07:41:34 51°14.056 2°55.467 3.9 23 7.2 100480 88
2009-03-26 07:41:39 51°14.068 2°55.459 3.4 304 7.2 100480 88
2009-03-26 07:41:44 51°14.079 2°55.451 3.4 18 7.3 100480 88
2009-03-26 07:41:50 51°14.093 2°55.441 4.5 309 7.3 100480 88
2009-03-26 07:41:54 51°14.102 2°55.434 2.9 20 7.3 100480 88
2009-03-26 07:41:59 51°14.113 2°55.425 3.2 311 7.3 100480 88
2009-03-26 07:42:04 51°14.124 2°55.416 3.6 26 7.3 100480 88
2009-03-26 07:42:09 51°14.135 2°55.407 3.6 304 7.3 100480 88
2009-03-26 07:42:15 51°14.148 2°55.396 3.7 27 7.3 100480 88
2009-03-26 07:42:20 51°14.159 2°55.387 3.3 305 7.3 100480 88
2009-03-26 07:42:25 51°14.17 2°55.377 2.7 22 7.3 100480 88
2009-03-26 07:42:30 51°14.18 2°55.366 2.9 304 7.3 100480 88
2009-03-26 07:42:35 51°14.19 2°55.355 1.7 251 7.3 100480 88
2009-03-26 07:42:41 51°14.202 2°55.341 2.8 310 7.3 100480 88
2009-03-26 07:42:46 51°14.212 2°55.33 3.8 20 7.3 100480 88
2009-03-26 07:42:51 51°14.222 2°55.318 3.4 302 7.3 100480 88
2009-03-26 07:42:56 51°14.232 2°55.306 4.3 320 7.3 100480 88
2009-03-26 07:43:01 51°14.241 2°55.293 3.5 304 7.3 100480 88
2009-03-26 07:43:06 51°14.25 2°55.28 3.2 24 7.3 100480 88
2009-03-26 07:43:10 51°14.258 2°55.269 7.1 311 7.3 100480 88
2009-03-26 07:43:15 51°14.267 2°55.256 6.4 26 7.3 100480 88
2009-03-26 07:43:20 51°14.275 2°55.242 6.1 304 7.3 100480 88
2009-03-26 07:43:25 51°14.284 2°55.227 5.1 26 7.3 100470 88
2009-03-26 07:43:30 51°14.292 2°55.213 5.9 310 7.3 100470 88
2009-03-26 07:43:34 51°14.299 2°55.201 6.8 21 7.3 100470 88
2009-03-26 07:43:39 51°14.307 2°55.187 6 308 7.3 100470 88
2009-03-26 07:43:44 51°14.316 2°55.173 5.7 22 7.3 100470 88
2009-03-26 07:43:49 51°14.325 2°55.158 7 311 7.3 100470 88
2009-03-26 07:43:54 51°14.333 2°55.144 7.5 21 7.3 100460 88
2009-03-26 07:43:58 51°14.34 2°55.132 5.7 305 7.3 100460 88
2009-03-26 07:44:03 51°14.348 2°55.117 5.1 27 7.3 100470 88
2009-03-26 07:44:09 51°14.358 2°55.099 4.4 305 7.3 100470 88
2009-03-26 07:44:14 51°14.366 2°55.083 5.8 23 7.3 100460 88
2009-03-26 07:44:18 51°14.372 2°55.071 9.4 311 7.3 100460 88
2009-03-26 07:44:23 51°14.38 2°55.055 8.6 21 7.3 100470 88
2009-03-26 07:44:28 51°14.388 2°55.039 9.9 308 7.3 100470 88
2009-03-26 07:44:34 51°14.397 2°55.02 8.8 247 7.3 100470 88
2009-03-26 07:44:38 51°14.403 2°55.007 9 309 7.3 100470 88
2009-03-26 07:44:42 51°14.409 2°54.993 8.2 250 7.3 100470 88
2009-03-26 07:44:49 51°14.42 2°54.97 8.7 309 7.3 100470 88
2009-03-26 07:44:54 51°14.428 2°54.954 9.4 18 7.3 100460 88
2009-03-26 07:44:58 51°14.435 2°54.942 8.8 308 7.3 100460 88
2009-03-26 07:45:03 51°14.444 2°54.927 8.9 251 7.4 100470 88
2009-03-26 07:45:08 51°14.454 2°54.913 10.1 309 7.4 100470 88
2009-03-26 07:45:14 51°14.465 2°54.895 9.7 253 7.3 100470 88
2009-03-26 07:45:18 51°14.472 2°54.883 7.7 311 7.3 100470 88
2009-03-26 07:45:23 51°14.482 2°54.868 7.6 18 7.3 100470 87
2009-03-26 07:45:28 51°14.492 2°54.853 7.8 304 7.3 100470 87
2009-03-26 07:45:33 51°14.501 2°54.837 7.7 22 7.3 100470 87
2009-03-26 07:45:38 51°14.51 2°54.821 7.2 306 7.3 100470 87
2009-03-26 07:45:43 51°14.519 2°54.804 9.4 249 7.3 100470 87
2009-03-26 07:45:49 51°14.53 2°54.784 9 305 7.3 100470 87
2009-03-26 07:45:54 51°14.539 2°54.767 10.2 251 7.4 100470 87
2009-03-26 07:45:58 51°14.546 2°54.753 9.6 306 7.4 100470 87
2009-03-26 07:46:03 51°14.555 2°54.736 7.6 251 7.3 100460 87
2009-03-26 07:46:08 51°14.564 2°54.718 6.8 311 7.3 100460 87
2009-03-26 07:46:14 51°14.575 2°54.697 6.9 20 7.3 100450 87
2009-03-26 07:46:18 51°14.582 2°54.683 6.8 306 7.3 100450 87
2009-03-26 07:46:23 51°14.592 2°54.665 8.6 23 7.3 100460 87
2009-03-26 07:46:29 51°14.603 2°54.643 9.2 307 7.3 100460 87
2009-03-26 07:46:34 51°14.612 2°54.625 11.7 25 7.3 100460 87
2009-03-26 07:46:38 51°14.619 2°54.611 9.5 308 7.3 100460 87
2009-03-26 07:46:43 51°14.629 2°54.592 9.4 248 7.4 100470 87
2009-03-26 07:46:49 51°14.64 2°54.57 10.4 309 7.4 100470 87
2009-03-26 07:46:54 51°14.65 2°54.551 8.7 251 7.4 100460 87
2009-03-26 07:46:58 51°14.657 2°54.537 11.1 306 7.4 100460 87
2009-03-26 07:47:03 51°14.667 2°54.518 8.5 250 7.3 100460 87
2009-03-26 07:47:08 51°14.676 2°54.5 8.2 308 7.3 100460 87
2009-03-26 07:47:14 51°14.688 2°54.477 9.4 20 7.4 100460 87
2009-03-26 07:47:18 51°14.696 2°54.462 8.4 303 7.4 100460 87
2009-03-26 07:47:23 51°14.705 2°54.443 9 249 7.3 100470 87
2009-03-26 07:47:28 51°14.715 2°54.424 9 304 7.3 100470 87
2009-03-26 07:47:33 51°14.725 2°54.404 7.4 247 7.3 100470 87
2009-03-26 07:47:38 51°14.735 2°54.385 9.5 308 7.3 100470 87
2009-03-26 07:47:42 51°14.743 2°54.369 8.8 249 7.3 100460 87
2009-03-26 07:47:49 51°14.757 2°54.341 8.1 303 7.3 100460 87
2009-03-26 07:47:54 51°14.766 2°54.32 8.4 247 7.4 100470 87
2009-03-26 07:47:58 51°14.774 2°54.303 9.5 306 7.4 100470 87
2009-03-26 07:48:03 51°14.784 2°54.281 7.1 26 7.4 100460 87
2009-03-26 07:48:09 51°14.796 2°54.256 8.2 303 7.4 100460 87
2009-03-26 07:48:13 51°14.805 2°54.239 8.4 245 7.4 100460 87
2009-03-26 07:48:18 51°14.815 2°54.218 10.1 304 7.4 100460 87
2009-03-26 07:48:23 51°14.825 2°54.197 9.5 246 7.4 100450 87
2009-03-26 07:48:29 51°14.837 2°54.17 9 302 7.4 100450 87
2009-03-26 07:48:33 51°14.844 2°54.153 10.5 25 7.4 100450 87
2009-03-26 07:48:38 51°14.854 2°54.131 8.5 310 7.4 100450 87
2009-03-26 07:48:43 51°14.864 2°54.109 9.1 26 7.4 100450 87
2009-03-26 07:48:49 51°14.876 2°54.083 10.3 309 7.4 100450 87
2009-03-26 07:48:54 51°14.885 2°54.061 8.5 24 7.4 100450 87
2009-03-26 07:48:58 51°14.893 2°54.044 8.2 310 7.4 100450 87
2009-03-26 07:49:02 51°14.9 2°54.026 9.8 23 7.4 100450 87
2009-03-26 07:49:09 51°14.914 2°53.995 9.2 306 7.4 100450 87
2009-03-26 07:49:14 51°14.924 2°53.974 10.3 21 7.4 100460 88
2009-03-26 07:49:18 51°14.932 2°53.956 8.8 306 7.4 100460 88
2009-03-26 07:49:23 51°14.942 2°53.935 11.5 251 7.4 100450 88
2009-03-26 07:49:28 51°14.952 2°53.914 9.6 305 7.4 100450 88
2009-03-26 07:49:34 51°14.964 2°53.888 10.8 21 7.4 100450 87
2009-03-26 07:49:38 51°14.973 2°53.871 9.4 305 7.4 100450 87
2009-03-26 07:49:43 51°14.983 2°53.85 8.3 19 7.4 100460 88
2009-03-26 07:49:48 51°14.993 2°53.828 8.2 309 7.4 100460 88
2009-03-26 07:49:53 51°15.003 2°53.807 10.7 20 7.4 100450 87
2009-03-26 07:49:58 51°15.014 2°53.786 9.5 285 7.4 100450 87
2009-03-26 07:50:03 51°15.024 2°53.764 8.9 18 7.4 100450 87
2009-03-26 07:50:09 51°15.036 2°53.739 8.3 311 7.4 100450 87
2009-03-26 07:50:13 51°15.045 2°53.721 8.5 248 7.4 100450 88
2009-03-26 07:50:18 51°15.055 2°53.7 10.5 304 7.4 100450 88
2009-03-26 07:50:23 51°15.065 2°53.678 4.4 20 7.4 100450 87
2009-03-26 07:50:29 51°15.077 2°53.652 9.8 303 7.4 100450 87
2009-03-26 07:50:33 51°15.085 2°53.635 8.7 25 7.4 100450 87
2009-03-26 07:50:38 51°15.096 2°53.614 9.9 307 7.4 100450 87
2009-03-26 07:50:42 51°15.104 2°53.597 8.2 23 7.4 100450 88
2009-03-26 07:50:49 51°15.118 2°53.567 8 304 7.4 100450 88
2009-03-26 07:50:54 51°15.128 2°53.545 10.1 246 7.4 100450 88
2009-03-26 07:50:58 51°15.137 2°53.528 8 281 7.4 100450 88
2009-03-26 07:51:03 51°15.147 2°53.507 10.4 19 7.4 100460 87
2009-03-26 07:51:09 51°15.159 2°53.481 8.1 308 7.4 100460 87
2009-03-26 07:51:13 51°15.168 2°53.464 10.1 20 7.4 100450 87
2009-03-26 07:51:18 51°15.178 2°53.443 8.7 304 7.4 100450 87
2009-03-26 07:51:23 51°15.189 2°53.421 9.1 20 7.4 100450 88
2009-03-26 07:51:28 51°15.199 2°53.4 9.6 307 7.4 100450 88
2009-03-26 07:51:34 51°15.211 2°53.374 11.1 249 7.4 100450 87
2009-03-26 07:51:38 51°15.219 2°53.357 8.7 303 7.4 100450 87
2009-03-26 07:51:43 51°15.23 2°53.335 9.3 246 7.4 100450 87
2009-03-26 07:51:49 51°15.242 2°53.309 10.6 284 7.4 100450 87
2009-03-26 07:51:54 51°15.253 2°53.288 10.1 248 7.4 100440 88
2009-03-26 07:51:58 51°15.262 2°53.271 8.4 306 7.4 100440 88
2009-03-26 07:52:03 51°15.272 2°53.249 10.8 248 7.4 100450 88
2009-03-26 07:52:09 51°15.285 2°53.224 11 282 7.4 100450 88
2009-03-26 07:52:13 51°15.293 2°53.207 10 245 7.4 100450 87
2009-03-26 07:52:18 51°15.304 2°53.186 11 307 7.4 100450 87
2009-03-26 07:52:23 51°15.314 2°53.165 10 19 7.4 100440 87
2009-03-26 07:52:29 51°15.327 2°53.14 8.8 286 7.4 100440 87
2009-03-26 07:52:33 51°15.335 2°53.123 11.5 252 7.4 100450 88
2009-03-26 07:52:38 51°15.346 2°53.102 9.2 281 7.4 100450 88
2009-03-26 07:52:43 51°15.357 2°53.08 8.5 24 7.4 100440 87
2009-03-26 07:52:49 51°15.369 2°53.055 9.7 282 7.4 100440 87
2009-03-26 07:52:53 51°15.378 2°53.038 11.8 20 7.4 100450 88
2009-03-26 07:52:58 51°15.389 2°53.017 11.2 283 7.4 100450 88
2009-03-26 07:53:03 51°15.399 2°52.995 9.8 20 7.4 100450 87
2009-03-26 07:53:09 51°15.412 2°52.97 11.4 281 7.4 100450 87
2009-03-26 07:53:13 51°15.421 2°52.953 10 22 7.4 100440 88
2009-03-26 07:53:19 51°15.434 2°52.928 11.3 280 7.4 100440 88
2009-03-26 07:53:23 51°15.443 2°52.911 9.8 251 7.4 100450 87
2009-03-26 07:53:29 51°15.455 2°52.886 11.4 306 7.4 100450 87
2009-03-26 07:53:34 51°15.466 2°52.865 9.7 247 7.4 100440 88
2009-03-26 07:53:38 51°15.475 2°52.848 12.5 283 7.4 100440 88
2009-03-26 07:53:43 51°15.486 2°52.828 11 247 7.4 100440 88
2009-03-26 07:53:48 51°15.498 2°52.807 13.2 282 7.4 100440 88
2009-03-26 07:53:54 51°15.511 2°52.783 10.1 249 7.4 100450 87
2009-03-26 07:53:58 51°15.52 2°52.766 11.7 304 7.4 100450 87
2009-03-26 07:54:03 51°15.531 2°52.746 12 247 7.4 100440 87
2009-03-26 07:54:09 51°15.545 2°52.721 10.8 281 7.4 100440 87
2009-03-26 07:54:13 51°15.554 2°52.705 11.9 247 7.4 100440 88
2009-03-26 07:54:18 51°15.565 2°52.684 10.4 307 7.4 100440 88
2009-03-26 07:54:23 51°15.576 2°52.663 10.1 24 7.4 100440 87
2009-03-26 07:54:29 51°15.59 2°52.638 11 284 7.4 100440 87
2009-03-26 07:54:33 51°15.599 2°52.622 11.6 24 7.4 100440 87
2009-03-26 07:54:39 51°15.612 2°52.597 10.2 308 7.4 100440 87
2009-03-26 07:54:43 51°15.621 2°52.58 9.6 24 7.4 100440 87
2009-03-26 07:54:49 51°15.634 2°52.555 9.7 281 7.4 100440 87
2009-03-26 07:54:53 51°15.643 2°52.538 11 20 7.4 100440 88
2009-03-26 07:54:58 51°15.654 2°52.517 11.2 282 7.4 100440 88
2009-03-26 07:55:03 51°15.665 2°52.496 10.7 20 7.4 100440 88
2009-03-26 07:55:09 51°15.679 2°52.471 10.7 285 7.4 100440 88
2009-03-26 07:55:13 51°15.687 2°52.454 11.9 22 7.4 100440 88
2009-03-26 07:55:19 51°15.7 2°52.428 10.1 280 7.4 100440 88
2009-03-26 07:55:23 51°15.709 2°52.411 11.5 20 7.4 100440 88
2009-03-26 07:55:29 51°15.722 2°52.386 9.7 306 7.4 100440 88
2009-03-26 07:55:34 51°15.733 2°52.364 9.9 247 7.4 100440 87
2009-03-26 07:55:38 51°15.742 2°52.347 8.4 280 7.4 100440 87
2009-03-26 07:55:43 51°15.753 2°52.326 8.7 23 7.4 100440 88
2009-03-26 07:55:49 51°15.766 2°52.301 12.4 305 7.4 100440 88
2009-03-26 07:55:54 51°15.777 2°52.28 11.7 21 7.5 100440 88
2009-03-26 07:55:58 51°15.786 2°52.263 8.6 305 7.5 100440 88
2009-03-26 07:56:03 51°15.797 2°52.242 11.1 22 7.5 100440 88
2009-03-26 07:56:08 51°15.807 2°52.221 12.1 307 7.5 100440 88
2009-03-26 07:56:14 51°15.821 2°52.196 11.3 247 7.4 100430 87
2009-03-26 07:56:18 51°15.829 2°52.179 9.2 309 7.4 100430 87
2009-03-26 07:56:23 51°15.84 2°52.158 9.1 21 7.5 100430 88
2009-03-26 07:56:28 51°15.851 2°52.137 10.9 280 7.5 100430 88
2009-03-26 07:56:34 51°15.864 2°52.111 10.3 248 7.5 100430 88
2009-03-26 07:56:38 51°15.873 2°52.095 11 310 7.5 100430 88
2009-03-26 07:56:43 51°15.884 2°52.074 12.5 22 7.5 100440 87
2009-03-26 07:56:49 51°15.897 2°52.049 11.7 285 7.5 100440 87
2009-03-26 07:56:53 51°15.906 2°52.033 11.1 22 7.5 100440 88
2009-03-26 07:56:58 51°15.917 2°52.012 9.2 308 7.5 100440 88
2009-03-26 07:57:03 51°15.928 2°51.991 9.5 19 7.5 100440 87
2009-03-26 07:57:09 51°15.941 2°51.966 9.3 280 7.5 100440 87
2009-03-26 07:57:13 51°15.95 2°51.95 9.1 20 7.5 100430 87
2009-03-26 07:57:19 51°15.963 2°51.925 10.2 284 7.5 100430 87
2009-03-26 07:57:23 51°15.972 2°51.909 8.7 21 7.5 100440 87
2009-03-26 07:57:29 51°15.984 2°51.883 10.3 283 7.5 100440 87
2009-03-26 07:57:34 51°15.995 2°51.863 10.2 246 7.5 100440 88
2009-03-26 07:57:38 51°16.004 2°51.846 8.8 285 7.5 100440 88
2009-03-26 07:57:43 51°16.015 2°51.826 8.1 24 7.5 100440 88
2009-03-26 07:57:49 51°16.028 2°51.801 8.4 286 7.5 100440 88
2009-03-26 07:57:54 51°16.039 2°51.781 10.1 247 7.5 100430 88
2009-03-26 07:57:58 51°16.048 2°51.765 9.7 282 7.5 100430 88
2009-03-26 07:58:03 51°16.059 2°51.745 8.6 25 7.5 100430 88
2009-03-26 07:58:09 51°16.073 2°51.721 9.8 303 7.5 100430 88
2009-03-26 07:58:14 51°16.084 2°51.702 8.8 19 7.5 100430 87
2009-03-26 07:58:18 51°16.093 2°51.686 10.7 282 7.5 100430 87
2009-03-26 07:58:23 51°16.105 2°51.667 10.4 22 7.5 100430 88
2009-03-26 07:58:28 51°16.116 2°51.647 11.3 284 7.5 100430 88
2009-03-26 07:58:34 51°16.13 2°51.624 9.5 247 7.5 100430 88
2009-03-26 07:58:39 51°16.141 2°51.604 9.8 287 7.5 100430 88
2009-03-26 07:58:43 51°16.15 2°51.589 10.3 23 7.5 100430 88
2009-03-26 07:58:49 51°16.164 2°51.565 9.8 281 7.5 100430 88
2009-03-26 07:58:53 51°16.173 2°51.549 11.9 21 7.5 100430 87
2009-03-26 07:58:58 51°16.184 2°51.53 13.3 309 7.5 100430 87
2009-03-26 07:59:03 51°16.196 2°51.511 12.3 19 7.5 100430 87
2009-03-26 07:59:09 51°16.209 2°51.487 12 282 7.5 100430 87
2009-03-26 07:59:13 51°16.218 2°51.472 10.6 246 7.5 100420 87
2009-03-26 07:59:19 51°16.232 2°51.449 9.9 307 7.5 100420 87
2009-03-26 07:59:23 51°16.24 2°51.433 10.3 248 7.5 100420 87
2009-03-26 07:59:29 51°16.254 2°51.41 10.5 285 7.5 100420 87
2009-03-26 07:59:34 51°16.265 2°51.391 10.8 249 7.5 100420 87
2009-03-26 07:59:38 51°16.274 2°51.375 12.3 281 7.5 100420 87
2009-03-26 07:59:44 51°16.287 2°51.352 10.4 22 7.5 100420 87
2009-03-26 07:59:49 51°16.298 2°51.333 9.7 283 7.5 100420 87
2009-03-26 07:59:54 51°16.309 2°51.313 11.9 245 7.5 100420 87
2009-03-26 07:59:58 51°16.318 2°51.298 11.6 286 7.5 100420 87
2009-03-26 08:00:03 51°16.328 2°51.278 12 251 7.5 100420 87
2009-03-26 08:00:09 51°16.342 2°51.256 9.9 306 7.5 100420 87
2009-03-26 08:00:14 51°16.354 2°51.238 10.9 19 7.6 100420 87
2009-03-26 08:00:18 51°16.363 2°51.223 10.4 280 7.6 100420 87
2009-03-26 08:00:23 51°16.375 2°51.206 8.9 246 7.6 100410 87
2009-03-26 08:00:29 51°16.39 2°51.187 8.8 309 7.6 100410 87
2009-03-26 08:00:34 51°16.402 2°51.171 10.7 253 7.6 100420 87
2009-03-26 08:00:39 51°16.416 2°51.158 10.2 282 7.6 100420 87
2009-03-26 08:00:43 51°16.427 2°51.147 11.6 254 7.6 100420 87
2009-03-26 08:00:49 51°16.443 2°51.133 10.5 287 7.6 100420 87
2009-03-26 08:00:54 51°16.457 2°51.122 7.1 261 7.6 100420 87
2009-03-26 08:00:58 51°16.469 2°51.114 6.6 304 7.6 100420 87
2009-03-26 08:01:03 51°16.484 2°51.107 5.4 260 7.6 100420 87
2009-03-26 08:01:09 51°16.501 2°51.098 7.7 286 7.6 100420 87
2009-03-26 08:01:13 51°16.513 2°51.093 8.4 258 7.6 100430 87
2009-03-26 08:01:19 51°16.531 2°51.087 5.5 303 7.6 100430 87
2009-03-26 08:01:23 51°16.543 2°51.084 5.1 261 7.6 100430 87
2009-03-26 08:01:29 51°16.561 2°51.081 4.5 286 7.6 100430 87
2009-03-26 08:01:34 51°16.576 2°51.079 6.5 270 7.6 100430 87
2009-03-26 08:01:38 51°16.588 2°51.078 6.1 310 7.6 100430 87
2009-03-26 08:01:43 51°16.601 2°51.078 5.3 269 7.6 100430 87
2009-03-26 08:01:49 51°16.617 2°51.078 4.7 77 7.6 100430 87
2009-03-26 08:01:53 51°16.627 2°51.079 6.4 23 7.6 100430 87
2009-03-26 08:01:58 51°16.639 2°51.079 6.6 79 7.6 100430 87
2009-03-26 08:02:03 51°16.65 2°51.081 5.3 20 7.7 100430 87
2009-03-26 08:02:09 51°16.663 2°51.083 5.9 74 7.7 100430 87
2009-03-26 08:02:13 51°16.672 2°51.083 5.3 19 7.7 100430 87
2009-03-26 08:02:19 51°16.685 2°51.085 6.7 75 7.7 100430 87
2009-03-26 08:02:23 51°16.693 2°51.086 6.8 24 7.7 100430 87
2009-03-26 08:02:29 51°16.706 2°51.088 6.8 51 7.7 100430 87
2009-03-26 08:02:34 51°16.716 2°51.089 5.5 26 7.7 100420 86
2009-03-26 08:02:39 51°16.726 2°51.092 5.5 73 7.7 100420 86
2009-03-26 08:02:43 51°16.734 2°51.092 6.6 22 7.7 100420 86
2009-03-26 08:02:49 51°16.746 2°51.095 6.8 52 7.7 100420 86
2009-03-26 08:02:54 51°16.756 2°51.096 6.1 20 7.7 100430 86
2009-03-26 08:02:58 51°16.764 2°51.097 5.7 56 7.7 100430 86
2009-03-26 08:03:03 51°16.773 2°51.098 6.6 23 7.7 100430 86
2009-03-26 08:03:09 51°16.783 2°51.099 6.8 84 7.7 100430 86
2009-03-26 08:03:14 51°16.791 2°51.1 7.4 25 7.7 100430 86
2009-03-26 08:03:19 51°16.798 2°51.1 7.1 309 7.7 100430 86
2009-03-26 08:03:23 51°16.804 2°51.1 6.3 23 7.7 100420 86
2009-03-26 08:03:29 51°16.811 2°51.099 8.2 77 7.7 100420 86
2009-03-26 08:03:34 51°16.817 2°51.098 7.6 27 7.7 100430 86
2009-03-26 08:03:38 51°16.821 2°51.097 8 52 7.7 100430 86
2009-03-26 08:03:43 51°16.826 2°51.096 7.5 21 7.7 100430 86
2009-03-26 08:03:49 51°16.832 2°51.095 6.7 73 7.7 100430 86
2009-03-26 08:03:53 51°16.836 2°51.095 7.6 20 7.7 100430 86
2009-03-26 08:03:59 51°16.841 2°51.093 8.5 74 7.7 100430 86
2009-03-26 08:04:03 51°16.845 2°51.093 8.6 25 7.7 100430 86
2009-03-26 08:04:09 51°16.85 2°51.092 8.1 74 7.7 100430 86
2009-03-26 08:04:14 51°16.853 2°51.092 7.7 24 7.7 100430 86
2009-03-26 08:04:18 51°16.856 2°51.091 7.7 73 7.7 100430 86
2009-03-26 08:04:23 51°16.859 2°51.09 9.4 20 7.7 100420 86
2009-03-26 08:04:29 51°16.863 2°51.089 8.4 75 7.7 100420 86
2009-03-26 08:04:33 51°16.866 2°51.087 8.5 24 7.7 100430 86
2009-03-26 08:04:39 51°16.868 2°51.085 10.6 279 7.7 100430 86
2009-03-26 08:04:43 51°16.87 2°51.083 10.2 270 7.7 100420 86
2009-03-26 08:04:49 51°16.872 2°51.081 10.2 306 7.7 100420 86
2009-03-26 08:04:54 51°16.873 2°51.079 10.1 267 7.7 100420 86
2009-03-26 08:04:58 51°16.874 2°51.078 9.8 282 7.7 100420 86
2009-03-26 08:05:03 51°16.875 2°51.075 8.8 270 7.7 100420 86
2009-03-26 08:05:09 51°16.876 2°51.073 9.2 307 7.7 100420 86
2009-03-26 08:05:14 51°16.877 2°51.071 8.4 266 7.7 100420 86
2009-03-26 08:05:19 51°16.878 2°51.069 10.1 287 7.7 100420 86
2009-03-26 08:05:23 51°16.879 2°51.067 7 267 7.7 100420 86
2009-03-26 08:05:29 51°16.879 2°51.065 9.6 281 7.7 100420 86
2009-03-26 08:05:34 51°16.88 2°51.063 6.2 263 7.7 100420 86
2009-03-26 08:05:38 51°16.88 2°51.061 7.4 311 7.7 100420 86
2009-03-26 08:05:43 51°16.881 2°51.059 7.7 264 7.7 100420 85
2009-03-26 08:05:49 51°16.881 2°51.057 6.8 287 7.7 100420 85
2009-03-26 08:05:54 51°16.881 2°51.054 7 262 7.7 100430 85
2009-03-26 08:05:59 51°16.881 2°51.053 7.8 281 7.7 100430 85
2009-03-26 08:06:03 51°16.881 2°51.051 5.7 263 7.7 100430 85
2009-03-26 08:06:09 51°16.881 2°51.049 8.2 280 7.7 100430 85
2009-03-26 08:06:13 51°16.881 2°51.048 7.3 263 7.7 100430 84
2009-03-26 08:06:18 51°16.881 2°51.046 5.7 303 7.7 100430 84
2009-03-26 08:06:23 51°16.881 2°51.044 6.5 262 7.7 100430 84
2009-03-26 08:06:29 51°16.881 2°51.042 7.1 285 7.7 100430 84
2009-03-26 08:06:34 51°16.88 2°51.04 8.3 260 7.7 100420 84
2009-03-26 08:06:38 51°16.88 2°51.039 7.1 279 7.7 100420 84
2009-03-26 08:06:44 51°16.88 2°51.038 10.9 261 7.7 100430 84
2009-03-26 08:06:49 51°16.879 2°51.036 7.5 285 7.7 100430 84
2009-03-26 08:06:54 51°16.879 2°51.035 8.1 260 7.7 100430 84
2009-03-26 08:06:58 51°16.879 2°51.034 6.6 281 7.7 100430 84
2009-03-26 08:07:03 51°16.878 2°51.032 11.2 261 7.7 100430 84
2009-03-26 08:07:09 51°16.878 2°51.031 11.9 304 7.7 100430 84
2009-03-26 08:07:14 51°16.878 2°51.03 9.1 262 7.7 100420 84
2009-03-26 08:07:18 51°16.877 2°51.029 8.5 305 7.7 100420 84
2009-03-26 08:07:23 51°16.877 2°51.028 9 262 7.7 100420 83
2009-03-26 08:07:29 51°16.876 2°51.027 8.7 286 7.7 100420 83
2009-03-26 08:07:34 51°16.876 2°51.026 7.1 263 7.7 100420 84
2009-03-26 08:07:38 51°16.876 2°51.025 8.2 303 7.7 100420 84
2009-03-26 08:07:43 51°16.875 2°51.024 7.1 261 7.7 100420 84
2009-03-26 08:07:48 51°16.875 2°51.023 9.6 279 7.7 100420 84
2009-03-26 08:07:54 51°16.874 2°51.022 10.9 260 7.7 100420 84
2009-03-26 08:07:58 51°16.874 2°51.021 10.9 284 7.7 100420 84
2009-03-26 08:08:03 51°16.873 2°51.02 9.6 262 7.8 100420 85
2009-03-26 08:08:09 51°16.873 2°51.019 11.5 280 7.8 100420 85
2009-03-26 08:08:13 51°16.872 2°51.019 7.4 260 7.8 100420 85
2009-03-26 08:08:18 51°16.872 2°51.018 7 304 7.8 100420 85
2009-03-26 08:08:23 51°16.871 2°51.017 8.2 260 7.8 100430 85
2009-03-26 08:08:29 51°16.87 2°51.016 7.1 285 7.8 100430 85
2009-03-26 08:08:33 51°16.87 2°51.016 7.8 261 7.8 100420 85
2009-03-26 08:08:39 51°16.869 2°51.015 9.5 309 7.8 100420 85
2009-03-26 08:08:43 51°16.869 2°51.014 6.1 262 7.8 100420 85
2009-03-26 08:08:49 51°16.868 2°51.013 9 303 7.8 100420 85
2009-03-26 08:08:54 51°16.867 2°51.013 8.4 260 7.8 100420 85
2009-03-26 08:08:58 51°16.867 2°51.012 11.4 286 7.8 100420 85
2009-03-26 08:09:03 51°16.866 2°51.012 8.1 262 7.8 100420 85
2009-03-26 08:09:09 51°16.865 2°51.012 8.2 310 7.8 100420 85
2009-03-26 08:09:14 51°16.865 2°51.011 10.5 258 7.8 100420 85
2009-03-26 08:09:18 51°16.864 2°51.011 11.1 287 7.8 100420 85
2009-03-26 08:09:23 51°16.864 2°51.011 6.2 264 7.8 100430 85
2009-03-26 08:09:29 51°16.863 2°51.01 7.4 306 7.8 100430 85
2009-03-26 08:09:34 51°16.863 2°51.01 8.6 261 7.8 100420 85
2009-03-26 08:09:39 51°16.862 2°51.01 6.8 285 7.8 100420 85
2009-03-26 08:09:43 51°16.861 2°51.01 8.6 262 7.8 100430 85
2009-03-26 08:09:49 51°16.86 2°51.009 7.4 281 7.8 100430 85
2009-03-26 08:09:54 51°16.86 2°51.009 8.8 262 7.8 100420 85
2009-03-26 08:09:58 51°16.859 2°51.009 9 282 7.8 100420 85
2009-03-26 08:10:03 51°16.859 2°51.008 9.1 260 7.8 100430 85
2009-03-26 08:10:09 51°16.858 2°51.008 8.3 311 7.8 100430 85
2009-03-26 08:10:14 51°16.857 2°51.008 7.4 262 7.8 100430 85
2009-03-26 08:10:18 51°16.857 2°51.007 8 311 7.8 100430 85
2009-03-26 08:10:23 51°16.856 2°51.007 10.7 262 7.8 100430 85
2009-03-26 08:10:29 51°16.856 2°51.007 7.4 280 7.8 100430 85
2009-03-26 08:10:33 51°16.855 2°51.007 8.1 261 7.8 100430 85
2009-03-26 08:10:38 51°16.854 2°51.007 6.1 304 7.8 100430 85
2009-03-26 08:10:43 51°16.854 2°51.006 7.1 263 7.8 100420 85
2009-03-26 08:10:49 51°16.853 2°51.006 6.9 285 7.8 100420 85
2009-03-26 08:10:54 51°16.852 2°51.006 10 261 7.8 100430 85
2009-03-26 08:10:58 51°16.852 2°51.006 6.3 281 7.8 100430 85
2009-03-26 08:11:03 51°16.851 2°51.005 8.1 259 7.8 100420 85
2009-03-26 08:11:09 51°16.85 2°51.005 7.4 285 7.8 100420 85
2009-03-26 08:11:14 51°16.849 2°51.005 8.7 262 7.8 100430 85
2009-03-26 08:11:18 51°16.849 2°51.005 8.3 283 7.8 100430 85
2009-03-26 08:11:23 51°16.848 2°51.005 7 263 7.8 100430 85
2009-03-26 08:11:29 51°16.847 2°51.004 7.4 306 7.8 100430 85
2009-03-26 08:11:34 51°16.846 2°51.004 8.4 264 7.8 100430 85
2009-03-26 08:11:38 51°16.846 2°51.005 6.5 312 7.8 100430 85
2009-03-26 08:11:43 51°16.845 2°51.004 8.2 264 7.8 100420 85
2009-03-26 08:11:49 51°16.844 2°51.005 7.5 303 7.8 100420 85
2009-03-26 08:11:54 51°16.843 2°51.005 8.6 265 7.8 100420 85
2009-03-26 08:11:58 51°16.843 2°51.005 8.5 280 7.8 100420 85
2009-03-26 08:12:03 51°16.842 2°51.005 11 261 7.8 100430 85
2009-03-26 08:12:09 51°16.841 2°51.005 6.9 283 7.8 100430 85
2009-03-26 08:12:14 51°16.84 2°51.005 6.8 264 7.8 100430 85
2009-03-26 08:12:18 51°16.839 2°51.005 6.5 308 7.8 100430 85
2009-03-26 08:12:23 51°16.838 2°51.005 8.8 265 7.8 100430 85
2009-03-26 08:12:29 51°16.838 2°51.005 8.4 281 7.8 100430 85
2009-03-26 08:12:34 51°16.837 2°51.005 9.9 266 7.8 100430 85
2009-03-26 08:12:39 51°16.836 2°51.005 6.6 304 7.8 100430 85
2009-03-26 08:12:43 51°16.835 2°51.004 9.5 266 7.8 100430 85
2009-03-26 08:12:48 51°16.834 2°51.005 8.4 304 7.8 100430 85
2009-03-26 08:12:54 51°16.833 2°51.005 7.9 268 7.7 100430 85
2009-03-26 08:12:58 51°16.833 2°51.005 8.9 284 7.7 100430 85
2009-03-26 08:13:03 51°16.832 2°51.005 10 269 7.7 100430 85
2009-03-26 08:13:09 51°16.83 2°51.005 7.1 284 7.7 100430 85
2009-03-26 08:13:13 51°16.83 2°51.005 8.6 269 7.8 100430 85
2009-03-26 08:13:18 51°16.829 2°51.005 8.5 308 7.8 100430 85
2009-03-26 08:13:23 51°16.828 2°51.005 7.3 268 7.7 100430 85
2009-03-26 08:13:29 51°16.827 2°51.005 6.6 302 7.7 100430 85
2009-03-26 08:13:34 51°16.826 2°51.005 7.9 265 7.8 100420 85
2009-03-26 08:13:38 51°16.825 2°51.005 9.5 310 7.8 100420 85
2009-03-26 08:13:43 51°16.824 2°51.005 9.8 270 7.8 100430 85
2009-03-26 08:13:49 51°16.823 2°51.005 8.7 304 7.8 100430 85
2009-03-26 08:13:54 51°16.822 2°51.005 9.3 268 7.8 100420 85
2009-03-26 08:13:58 51°16.821 2°51.005 9 284 7.8 100420 85
2009-03-26 08:14:03 51°16.821 2°51.005 10.7 268 7.7 100420 85
2009-03-26 08:14:09 51°16.819 2°51.005 12 304 7.7 100420 85
2009-03-26 08:14:14 51°16.818 2°51.005 10 269 7.7 100420 85
2009-03-26 08:14:18 51°16.818 2°51.005 11.6 55 7.7 100420 85
2009-03-26 08:14:23 51°16.817 2°51.006 9.9 268 7.7 100430 85
2009-03-26 08:14:28 51°16.816 2°51.006 11.2 53 7.7 100430 85
2009-03-26 08:14:34 51°16.815 2°51.006 8.6 266 7.7 100430 85
2009-03-26 08:14:38 51°16.814 2°51.006 10.2 307 7.7 100430 85
2009-03-26 08:14:43 51°16.813 2°51.006 9.8 269 7.7 100430 85
2009-03-26 08:14:49 51°16.813 2°51.006 9.8 281 7.7 100430 85
2009-03-26 08:14:53 51°16.812 2°51.006 11.9 268 7.7 100430 85
2009-03-26 08:14:58 51°16.811 2°51.006 11.5 281 7.7 100430 85
2009-03-26 08:15:03 51°16.811 2°51.006 9.2 270 7.7 100430 85
2009-03-26 08:15:09 51°16.809 2°51.006 9.8 282 7.7 100430 85
2009-03-26 08:15:13 51°16.808 2°51.006 9.1 269 7.7 100430 85
2009-03-26 08:15:19 51°16.807 2°51.006 8.8 49 7.7 100430 85
2009-03-26 08:15:23 51°16.807 2°51.006 10.2 342 7.7 100420 85
2009-03-26 08:15:29 51°16.806 2°51.006 7.9 280 7.7 100420 85
2009-03-26 08:15:34 51°16.805 2°51.006 9.9 27 7.7 100410 84
2009-03-26 08:15:38 51°16.804 2°51.006 10.8 283 7.7 100410 84
2009-03-26 08:15:43 51°16.804 2°51.006 9.9 270 7.7 100420 85
2009-03-26 08:15:49 51°16.803 2°51.006 8.4 305 7.7 100420 85
2009-03-26 08:15:54 51°16.802 2°51.006 9.1 269 7.7 100420 85
2009-03-26 08:15:58 51°16.801 2°51.006 8.7 307 7.7 100420 85
2009-03-26 08:16:03 51°16.8 2°51.006 9.7 266 7.8 100430 85
2009-03-26 08:16:09 51°16.799 2°51.006 10 311 7.8 100430 85
2009-03-26 08:16:14 51°16.799 2°51.006 9.4 266 7.7 100430 85
2009-03-26 08:16:18 51°16.798 2°51.006 10 303 7.7 100430 85
2009-03-26 08:16:23 51°16.797 2°51.006 10 267 7.7 100420 85
2009-03-26 08:16:28 51°16.796 2°51.006 8 287 7.7 100420 85
2009-03-26 08:16:34 51°16.795 2°51.006 9.1 269 7.7 100420 85
2009-03-26 08:16:38 51°16.795 2°51.006 6.8 304 7.7 100420 85
2009-03-26 08:16:43 51°16.794 2°51.006 8.2 267 7.7 100420 85
2009-03-26 08:16:49 51°16.793 2°51.006 8.2 281 7.7 100420 85
2009-03-26 08:16:54 51°16.792 2°51.006 7.6 269 7.8 100430 85
2009-03-26 08:16:59 51°16.792 2°51.006 8.5 282 7.8 100430 85
2009-03-26 08:17:03 51°16.791 2°51.005 9.5 269 7.8 100420 85
2009-03-26 08:17:08 51°16.79 2°51.005 10.3 55 7.8 100420 85
2009-03-26 08:17:14 51°16.79 2°51.005 9.4 269 7.8 100420 85
2009-03-26 08:17:18 51°16.789 2°51.005 9.1 305 7.8 100420 85
2009-03-26 08:17:23 51°16.788 2°51.004 9.9 269 7.8 100420 85
2009-03-26 08:17:29 51°16.788 2°51.003 11.9 284 7.8 100420 85
2009-03-26 08:17:33 51°16.787 2°51.003 10.1 269 7.7 100430 85
2009-03-26 08:17:39 51°16.787 2°51.003 9.5 310 7.7 100430 85
2009-03-26 08:17:43 51°16.786 2°51.002 9.6 268 7.7 100430 85
2009-03-26 08:17:49 51°16.786 2°51.002 9.3 304 7.7 100430 85
2009-03-26 08:17:54 51°16.786 2°51.001 7.2 265 7.7 100420 85
2009-03-26 08:17:58 51°16.785 2°51.001 8.3 282 7.7 100420 85
2009-03-26 08:18:03 51°16.785 2°51 9 267 7.8 100420 85
2009-03-26 08:18:09 51°16.785 2°50.999 7.7 308 7.8 100420 85
2009-03-26 08:18:14 51°16.784 2°50.998 8.2 263 7.8 100420 85
2009-03-26 08:18:18 51°16.784 2°50.997 7.6 281 7.8 100420 85
2009-03-26 08:18:23 51°16.784 2°50.996 7.5 266 7.8 100420 85
2009-03-26 08:18:29 51°16.784 2°50.995 7.2 304 7.8 100420 85
2009-03-26 08:18:34 51°16.784 2°50.994 7 264 7.8 100420 85
2009-03-26 08:18:38 51°16.784 2°50.993 7.5 304 7.8 100420 85
2009-03-26 08:18:43 51°16.784 2°50.992 9 265 7.7 100420 85
2009-03-26 08:18:49 51°16.784 2°50.99 8.4 304 7.7 100420 85
2009-03-26 08:18:54 51°16.784 2°50.989 8.5 264 7.8 100430 85
2009-03-26 08:18:58 51°16.784 2°50.988 8.4 283 7.8 100430 85
2009-03-26 08:19:03 51°16.785 2°50.986 6.9 261 7.7 100420 85
2009-03-26 08:19:09 51°16.785 2°50.985 7 280 7.7 100420 85
2009-03-26 08:19:14 51°16.785 2°50.984 5.7 263 7.8 100420 85
2009-03-26 08:19:18 51°16.785 2°50.982 7 306 7.8 100420 85
2009-03-26 08:19:23 51°16.785 2°50.981 7.9 269 7.8 100420 85
2009-03-26 08:19:29 51°16.785 2°50.98 7.1 308 7.8 100420 85
2009-03-26 08:19:34 51°16.785 2°50.978 7 268 7.8 100420 85
2009-03-26 08:19:38 51°16.785 2°50.977 8.7 310 7.8 100420 85
2009-03-26 08:19:43 51°16.786 2°50.976 7 268 7.8 100420 85
2009-03-26 08:19:49 51°16.786 2°50.973 7.1 280 7.8 100420 85
2009-03-26 08:19:53 51°16.786 2°50.972 7.4 265 7.7 100420 85
2009-03-26 08:19:58 51°16.786 2°50.971 8.1 281 7.7 100420 85
2009-03-26 08:20:03 51°16.787 2°50.969 8.7 265 7.7 100420 85
2009-03-26 08:20:09 51°16.787 2°50.967 8.3 283 7.7 100420 85
2009-03-26 08:20:13 51°16.787 2°50.966 8.2 269 7.8 100430 85
2009-03-26 08:20:18 51°16.787 2°50.964 7.9 284 7.8 100430 85
2009-03-26 08:20:23 51°16.788 2°50.962 6.7 265 7.8 100420 85
2009-03-26 08:20:29 51°16.788 2°50.96 7.6 306 7.8 100420 85
2009-03-26 08:20:34 51°16.788 2°50.958 6.3 266 7.8 100420 85
2009-03-26 08:20:38 51°16.789 2°50.957 8.3 306 7.8 100420 85
2009-03-26 08:20:43 51°16.789 2°50.955 7.5 266 7.7 100430 86
2009-03-26 08:20:49 51°16.79 2°50.953 6.9 304 7.7 100430 86
2009-03-26 08:20:54 51°16.79 2°50.951 8.4 265 7.8 100420 86
2009-03-26 08:20:58 51°16.79 2°50.949 6.1 280 7.8 100420 86
2009-03-26 08:21:03 51°16.791 2°50.948 7 266 7.7 100420 86
2009-03-26 08:21:09 51°16.792 2°50.945 8.8 280 7.7 100420 86
2009-03-26 08:21:14 51°16.792 2°50.943 8.1 268 7.7 100420 86
2009-03-26 08:21:18 51°16.793 2°50.941 10.4 307 7.7 100420 86
2009-03-26 08:21:23 51°16.795 2°50.939 9.9 251 7.8 100430 86
2009-03-26 08:21:29 51°16.796 2°50.936 9.1 309 7.8 100430 86
2009-03-26 08:21:34 51°16.798 2°50.934 10.2 32 7.7 100420 86
2009-03-26 08:21:38 51°16.799 2°50.933 9.3 56 7.7 100420 86
2009-03-26 08:21:43 51°16.801 2°50.931 10 28 7.7 100420 86
2009-03-26 08:21:49 51°16.803 2°50.929 9 72 7.7 100420 86
2009-03-26 08:21:53 51°16.805 2°50.928 11.4 27 7.7 100420 86
2009-03-26 08:21:58 51°16.807 2°50.927 10.2 52 7.7 100420 86
2009-03-26 08:22:03 51°16.809 2°50.926 10.7 24 7.7 100430 86
2009-03-26 08:22:09 51°16.812 2°50.926 10.3 79 7.7 100430 86
2009-03-26 08:22:13 51°16.814 2°50.926 8.6 22 7.7 100430 86
2009-03-26 08:22:19 51°16.817 2°50.926 9.2 55 7.7 100430 86
2009-03-26 08:22:23 51°16.819 2°50.926 8.6 21 7.7 100420 86
2009-03-26 08:22:29 51°16.822 2°50.927 7.1 53 7.7 100420 86
2009-03-26 08:22:34 51°16.824 2°50.929 8.1 26 7.7 100420 86
2009-03-26 08:22:38 51°16.826 2°50.93 8.3 56 7.7 100420 86
2009-03-26 08:22:43 51°16.828 2°50.932 4.8 28 7.7 100420 86
2009-03-26 08:22:49 51°16.831 2°50.935 6.2 50 7.7 100420 86
2009-03-26 08:22:54 51°16.833 2°50.937 7.1 18 7.7 100420 86
2009-03-26 08:22:58 51°16.834 2°50.94 9.1 51 7.7 100420 86
2009-03-26 08:23:04 51°16.836 2°50.944 11.1 21 7.8 100420 86
2009-03-26 08:23:09 51°16.837 2°50.948 9.4 56 7.8 100420 86
2009-03-26 08:23:14 51°16.838 2°50.952 10.4 21 7.8 100410 86
2009-03-26 08:23:18 51°16.839 2°50.956 8.1 51 7.8 100410 86
2009-03-26 08:23:23 51°16.84 2°50.96 9.2 40 7.8 100410 86
2009-03-26 08:23:28 51°16.841 2°50.965 10.5 44 7.8 100410 86
2009-03-26 08:23:34 51°16.842 2°50.972 9.8 43 7.8 100410 86
2009-03-26 08:23:38 51°16.842 2°50.976 9.3 39 7.8 100410 86
2009-03-26 08:23:43 51°16.843 2°50.981 10.8 40 7.8 100400 86
2009-03-26 08:23:49 51°16.843 2°50.989 10.1 42 7.8 100400 86
2009-03-26 08:23:54 51°16.844 2°50.996 9.2 39 7.8 100390 86
2009-03-26 08:23:59 51°16.845 2°51.004 10.7 43 7.8 100390 86
2009-03-26 08:24:03 51°16.845 2°51.01 9.7 38 7.8 100400 86
2009-03-26 08:24:09 51°16.846 2°51.021 8.4 35 7.8 100400 86
2009-03-26 08:24:14 51°16.846 2°51.031 8.5 29 7.8 100400 85
2009-03-26 08:24:18 51°16.846 2°51.04 7.8 34 7.8 100400 85
2009-03-26 08:24:23 51°16.847 2°51.051 8.2 33 7.8 100380 85
2009-03-26 08:24:29 51°16.847 2°51.066 9.4 35 7.8 100380 85
2009-03-26 08:24:33 51°16.848 2°51.076 7.9 34 7.8 100390 85
2009-03-26 08:24:38 51°16.848 2°51.089 7.9 33 7.8 100390 85
2009-03-26 08:24:43 51°16.849 2°51.102 7 41 7.8 100390 86
2009-03-26 08:24:49 51°16.85 2°51.116 7.1 54 7.8 100390 86
2009-03-26 08:24:54 51°16.853 2°51.127 7.9 19 7.8 100400 85
2009-03-26 08:24:58 51°16.855 2°51.134 6.8 55 7.8 100400 85
2009-03-26 08:25:03 51°16.858 2°51.142 7.8 21 7.8 100400 86
2009-03-26 08:25:09 51°16.862 2°51.15 5.7 56 7.8 100400 86
2009-03-26 08:25:14 51°16.865 2°51.156 5.6 23 7.8 100400 86
2009-03-26 08:25:18 51°16.868 2°51.16 4.8 57 7.8 100400 86
2009-03-26 08:25:23 51°16.871 2°51.164 7.4 24 7.8 100410 86
2009-03-26 08:25:29 51°16.875 2°51.168 9.5 56 7.8 100410 86
2009-03-26 08:25:34 51°16.878 2°51.17 8.7 24 7.8 100420 86
2009-03-26 08:25:38 51°16.881 2°51.172 9.5 56 7.8 100420 86
2009-03-26 08:25:43 51°16.884 2°51.173 9.6 25 7.8 100410 86
2009-03-26 08:25:49 51°16.888 2°51.174 9.9 72 7.8 100410 86
2009-03-26 08:25:54 51°16.892 2°51.173 10.5 270 7.9 100420 86
2009-03-26 08:25:58 51°16.894 2°51.172 9.3 80 7.9 100420 86
2009-03-26 08:26:03 51°16.897 2°51.171 8.6 269 7.8 100420 86
2009-03-26 08:26:09 51°16.9 2°51.169 8.5 74 7.8 100420 86
2009-03-26 08:26:13 51°16.901 2°51.168 10.1 270 7.8 100430 86
2009-03-26 08:26:18 51°16.903 2°51.166 11.5 312 7.8 100430 86
2009-03-26 08:26:23 51°16.905 2°51.165 11.6 268 7.8 100430 86
2009-03-26 08:26:29 51°16.907 2°51.163 10.5 287 7.8 100430 86
2009-03-26 08:26:33 51°16.908 2°51.161 11.6 269 7.8 100420 86
2009-03-26 08:26:39 51°16.909 2°51.159 10.2 306 7.8 100420 86
2009-03-26 08:26:43 51°16.91 2°51.158 10.8 268 7.8 100420 86
2009-03-26 08:26:48 51°16.91 2°51.156 9 306 7.8 100420 86
2009-03-26 08:26:54 51°16.911 2°51.155 9.6 268 7.8 100430 86
2009-03-26 08:26:58 51°16.911 2°51.153 8.9 282 7.8 100430 86
2009-03-26 08:27:03 51°16.911 2°51.152 8.3 263 7.8 100430 86
2009-03-26 08:27:09 51°16.912 2°51.15 6.5 306 7.8 100430 86
2009-03-26 08:27:14 51°16.912 2°51.149 8.1 264 7.8 100430 85
2009-03-26 08:27:18 51°16.912 2°51.148 6.3 308 7.8 100430 85
2009-03-26 08:27:24 51°16.912 2°51.146 8 264 7.8 100430 85
2009-03-26 08:27:29 51°16.911 2°51.145 9 305 7.8 100430 85
2009-03-26 08:27:34 51°16.911 2°51.144 9.7 261 7.8 100430 86
2009-03-26 08:27:38 51°16.911 2°51.143 10.9 307 7.8 100430 86
2009-03-26 08:27:43 51°16.911 2°51.142 8.4 260 7.8 100440 86
2009-03-26 08:27:49 51°16.91 2°51.141 8 310 7.8 100440 86
2009-03-26 08:27:54 51°16.91 2°51.14 8.8 260 7.8 100430 86
2009-03-26 08:27:58 51°16.909 2°51.139 9.6 283 7.8 100430 86
2009-03-26 08:28:03 51°16.909 2°51.138 12.9 255 7.8 100430 86
2009-03-26 08:28:09 51°16.908 2°51.137 11.5 278 7.8 100430 86
2009-03-26 08:28:14 51°16.908 2°51.136 9.3 259 7.8 100430 86
2009-03-26 08:28:18 51°16.908 2°51.136 12.8 308 7.8 100430 86
2009-03-26 08:28:23 51°16.907 2°51.135 13.8 259 7.8 100430 86
2009-03-26 08:28:28 51°16.907 2°51.135 13.1 306 7.8 100430 86
2009-03-26 08:28:34 51°16.906 2°51.135 12.2 257 7.9 100430 86
2009-03-26 08:28:38 51°16.905 2°51.134 10.9 310 7.9 100430 86
2009-03-26 08:28:43 51°16.905 2°51.134 11.9 258 7.8 100430 86
2009-03-26 08:28:49 51°16.904 2°51.134 11.7 285 7.8 100430 86
2009-03-26 08:28:53 51°16.903 2°51.134 12.5 258 7.8 100430 86
2009-03-26 08:28:59 51°16.903 2°51.133 8.7 306 7.8 100430 86
2009-03-26 08:29:03 51°16.902 2°51.133 10.9 259 7.8 100420 86
2009-03-26 08:29:09 51°16.901 2°51.133 11.9 307 7.8 100420 86
2009-03-26 08:29:14 51°16.9 2°51.133 9.2 262 7.8 100420 86
2009-03-26 08:29:18 51°16.9 2°51.133 8 311 7.8 100420 86
2009-03-26 08:29:23 51°16.899 2°51.133 9 259 7.8 100430 86
2009-03-26 08:29:29 51°16.898 2°51.133 8.6 282 7.8 100430 86
2009-03-26 08:29:34 51°16.897 2°51.134 6.4 262 7.8 100420 86
2009-03-26 08:29:38 51°16.897 2°51.134 9.1 282 7.8 100420 86
2009-03-26 08:29:43 51°16.896 2°51.134 7.7 265 7.9 100420 86
2009-03-26 08:29:49 51°16.895 2°51.135 11.8 302 7.9 100420 86
2009-03-26 08:29:54 51°16.894 2°51.135 10.1 262 7.8 100430 86
2009-03-26 08:29:58 51°16.893 2°51.135 10 280 7.8 100430 86
2009-03-26 08:30:03 51°16.892 2°51.136 9.8 259 7.8 100430 86
2009-03-26 08:30:09 51°16.891 2°51.136 8.4 311 7.8 100430 86
2009-03-26 08:30:14 51°16.89 2°51.137 10.1 261 7.8 100430 86
2009-03-26 08:30:18 51°16.89 2°51.137 6.4 305 7.8 100430 86
2009-03-26 08:30:23 51°16.889 2°51.138 9.9 261 7.8 100420 86
2009-03-26 08:30:29 51°16.887 2°51.138 6.2 311 7.8 100420 86
2009-03-26 08:30:34 51°16.886 2°51.139 6.7 262 7.8 100430 86
2009-03-26 08:30:38 51°16.886 2°51.139 9.9 305 7.8 100430 86
2009-03-26 08:30:43 51°16.884 2°51.14 8.9 266 7.8 100410 86
2009-03-26 08:30:49 51°16.883 2°51.141 7.4 286 7.8 100410 86
2009-03-26 08:30:54 51°16.882 2°51.141 9.7 265 7.8 100420 86
2009-03-26 08:30:59 51°16.881 2°51.141 10.1 303 7.8 100420 86
2009-03-26 08:31:03 51°16.88 2°51.142 9.8 266 7.8 100420 86
2009-03-26 08:31:08 51°16.879 2°51.143 8 310 7.8 100420 86
2009-03-26 08:31:14 51°16.878 2°51.144 11.2 268 7.8 100410 87
2009-03-26 08:31:18 51°16.877 2°51.144 10 310 7.8 100410 87
2009-03-26 08:31:23 51°16.875 2°51.145 8.5 268 7.8 100410 86
2009-03-26 08:31:29 51°16.874 2°51.146 9.8 305 7.8 100410 86
2009-03-26 08:31:34 51°16.873 2°51.146 9.7 270 7.8 100410 86
2009-03-26 08:31:38 51°16.872 2°51.147 9 304 7.8 100410 86
2009-03-26 08:31:44 51°16.87 2°51.147 9.2 256 7.8 100410 87
2009-03-26 08:31:49 51°16.869 2°51.147 10.2 48 7.8 100410 87
2009-03-26 08:31:54 51°16.867 2°51.148 8.7 269 7.8 100410 87
2009-03-26 08:31:58 51°16.866 2°51.148 10.4 288 7.8 100410 87
2009-03-26 08:32:03 51°16.865 2°51.149 10.5 325 7.8 100410 87
2009-03-26 08:32:09 51°16.863 2°51.149 9.9 56 7.8 100410 87
2009-03-26 08:32:14 51°16.862 2°51.15 8.6 28 7.8 100410 87
2009-03-26 08:32:18 51°16.861 2°51.15 9.3 53 7.8 100410 87
2009-03-26 08:32:23 51°16.86 2°51.151 8.5 27 7.8 100410 87
2009-03-26 08:32:29 51°16.858 2°51.151 9.7 75 7.8 100410 87
2009-03-26 08:32:34 51°16.857 2°51.152 9.1 28 7.8 100410 87
2009-03-26 08:32:38 51°16.856 2°51.152 10.2 51 7.8 100410 87
2009-03-26 08:32:43 51°16.854 2°51.152 8.3 22 7.8 100410 87
2009-03-26 08:32:48 51°16.853 2°51.153 11.6 58 7.8 100410 87
2009-03-26 08:32:54 51°16.851 2°51.154 10.5 21 7.8 100410 87
2009-03-26 08:32:58 51°16.85 2°51.154 10.1 57 7.8 100410 87
2009-03-26 08:33:03 51°16.849 2°51.155 10.4 27 7.8 100410 87
2009-03-26 08:33:09 51°16.847 2°51.155 9.7 76 7.8 100410 87
2009-03-26 08:33:14 51°16.846 2°51.156 11.1 25 7.8 100410 87
2009-03-26 08:33:19 51°16.845 2°51.156 12.2 56 7.8 100410 87
2009-03-26 08:33:23 51°16.844 2°51.156 10.2 17 7.8 100410 87
2009-03-26 08:33:29 51°16.842 2°51.157 9.7 56 7.8 100410 87
2009-03-26 08:33:34 51°16.841 2°51.157 11.4 24 7.8 100410 87
2009-03-26 08:33:38 51°16.84 2°51.158 10.7 54 7.8 100410 87
2009-03-26 08:33:43 51°16.839 2°51.158 8.2 26 7.8 100400 87
2009-03-26 08:33:49 51°16.837 2°51.159 9.5 76 7.8 100400 87
2009-03-26 08:33:53 51°16.836 2°51.16 10.5 24 7.8 100400 87
2009-03-26 08:33:58 51°16.835 2°51.16 10.5 -999 7.8 100400 87
2009-03-26 08:34:03 51°16.834 2°51.161 10.9 21 7.8 100410 87
2009-03-26 08:34:09 51°16.832 2°51.161 10.1 52 7.8 100410 87
2009-03-26 08:34:14 51°16.831 2°51.162 9.4 20 7.8 100410 87
2009-03-26 08:34:18 51°16.83 2°51.162 10.2 50 7.8 100410 87
2009-03-26 08:34:23 51°16.829 2°51.162 8.9 22 7.8 100410 87
2009-03-26 08:34:29 51°16.827 2°51.163 9.5 53 7.8 100410 87
2009-03-26 08:34:34 51°16.826 2°51.163 10.6 24 7.8 100410 87
2009-03-26 08:34:38 51°16.825 2°51.164 9.7 53 7.8 100410 87
2009-03-26 08:34:43 51°16.824 2°51.164 4.4 19 7.8 100420 87
2009-03-26 08:34:49 51°16.822 2°51.165 11.6 53 7.8 100420 87
2009-03-26 08:34:54 51°16.821 2°51.165 11.2 26 7.8 100410 88
2009-03-26 08:34:58 51°16.82 2°51.165 9.2 79 7.8 100410 88
2009-03-26 08:35:03 51°16.819 2°51.166 9.8 28 7.8 100410 88
2009-03-26 08:35:09 51°16.818 2°51.167 10.9 58 7.8 100410 88
2009-03-26 08:35:14 51°16.817 2°51.167 11 26 7.8 100410 88
2009-03-26 08:35:18 51°16.816 2°51.167 11.9 55 7.8 100410 88
2009-03-26 08:35:23 51°16.814 2°51.168 10.1 21 7.8 100410 88
2009-03-26 08:35:29 51°16.813 2°51.168 10.4 80 7.8 100410 88
2009-03-26 08:35:33 51°16.812 2°51.169 9.7 21 7.8 100410 88
2009-03-26 08:35:38 51°16.811 2°51.169 10.7 54 7.8 100410 88
2009-03-26 08:35:43 51°16.81 2°51.17 9.4 26 7.8 100410 88
2009-03-26 08:35:49 51°16.809 2°51.17 9.7 72 7.8 100410 88
2009-03-26 08:35:53 51°16.809 2°51.17 9.4 26 7.8 100400 88
2009-03-26 08:35:58 51°16.808 2°51.17 11 78 7.8 100400 88
2009-03-26 08:36:03 51°16.808 2°51.171 9.6 21 7.8 100410 88
2009-03-26 08:36:09 51°16.807 2°51.171 10.2 59 7.8 100410 88
2009-03-26 08:36:14 51°16.807 2°51.171 11 28 7.8 100410 88
2009-03-26 08:36:18 51°16.807 2°51.171 10.9 54 7.8 100410 88
2009-03-26 08:36:23 51°16.807 2°51.171 11.5 20 7.8 100410 88
2009-03-26 08:36:29 51°16.808 2°51.17 9.9 54 7.8 100410 88
2009-03-26 08:36:34 51°16.808 2°51.17 9.4 24 7.8 100410 88
2009-03-26 08:36:38 51°16.808 2°51.17 11 57 7.8 100410 88
2009-03-26 08:36:43 51°16.808 2°51.17 11.9 27 7.8 100410 87
2009-03-26 08:36:49 51°16.809 2°51.169 9.6 52 7.8 100410 87
2009-03-26 08:36:54 51°16.81 2°51.168 10 23 7.8 100400 88
2009-03-26 08:36:58 51°16.81 2°51.168 10.1 81 7.8 100400 88
2009-03-26 08:37:03 51°16.811 2°51.167 9.1 21 7.8 100410 88
2009-03-26 08:37:09 51°16.812 2°51.167 7.8 307 7.8 100410 88
2009-03-26 08:37:14 51°16.813 2°51.166 8 29 7.8 100410 87
2009-03-26 08:37:18 51°16.815 2°51.166 9.1 54 7.8 100410 87
2009-03-26 08:37:23 51°16.817 2°51.165 9.4 24 7.8 100410 87
2009-03-26 08:37:29 51°16.819 2°51.165 7.8 74 7.8 100410 87
2009-03-26 08:37:34 51°16.822 2°51.166 8.3 26 7.8 100410 88
2009-03-26 08:37:38 51°16.824 2°51.166 7.9 53 7.8 100410 88
2009-03-26 08:37:43 51°16.827 2°51.168 8 25 7.8 100400 87
2009-03-26 08:37:49 51°16.831 2°51.17 6.4 74 7.8 100400 87
2009-03-26 08:37:53 51°16.833 2°51.172 6.3 23 7.8 100410 88
2009-03-26 08:37:59 51°16.836 2°51.176 5.7 55 7.8 100410 88
2009-03-26 08:38:03 51°16.838 2°51.18 6.4 27 7.8 100410 88
2009-03-26 08:38:08 51°16.84 2°51.185 8.7 55 7.8 100410 88
2009-03-26 08:38:14 51°16.842 2°51.191 8.1 26 7.8 100410 88
2009-03-26 08:38:18 51°16.843 2°51.196 7.6 54 7.8 100410 88
2009-03-26 08:38:23 51°16.844 2°51.201 9.2 37 7.8 100410 88
2009-03-26 08:38:29 51°16.844 2°51.209 9.5 38 7.8 100410 88
2009-03-26 08:38:34 51°16.844 2°51.215 9.4 34 7.8 100400 88
2009-03-26 08:38:38 51°16.843 2°51.22 9.6 34 7.8 100400 88
2009-03-26 08:38:44 51°16.842 2°51.227 9.4 31 7.8 100390 88
2009-03-26 08:38:49 51°16.84 2°51.232 9.7 28 7.8 100390 88
2009-03-26 08:38:54 51°16.839 2°51.238 9.4 25 7.8 100390 88
2009-03-26 08:38:58 51°16.837 2°51.242 11 26 7.8 100390 88
2009-03-26 08:39:03 51°16.835 2°51.246 10.9 22 7.8 100380 88
2009-03-26 08:39:09 51°16.832 2°51.252 10.3 17 7.8 100380 88
2009-03-26 08:39:14 51°16.829 2°51.257 10 19 7.8 100370 88
2009-03-26 08:39:18 51°16.827 2°51.26 10 17 7.8 100370 88
2009-03-26 08:39:23 51°16.824 2°51.264 10.1 15 7.8 100390 88
2009-03-26 08:39:29 51°16.821 2°51.269 10 10 7.8 100390 88
2009-03-26 08:39:34 51°16.818 2°51.273 10.8 16 7.8 100380 88
2009-03-26 08:39:38 51°16.815 2°51.276 10.7 13 7.8 100380 88
2009-03-26 08:39:43 51°16.812 2°51.28 9.7 17 7.8 100380 88
2009-03-26 08:39:49 51°16.808 2°51.285 10.6 13 7.8 100380 88
2009-03-26 08:39:54 51°16.804 2°51.288 10.2 17 7.8 100380 88
2009-03-26 08:39:58 51°16.801 2°51.291 11.4 15 7.8 100380 88
2009-03-26 08:40:03 51°16.798 2°51.295 11.3 12 7.8 100380 88
2009-03-26 08:40:09 51°16.793 2°51.3 11.3 15 7.8 100380 88
2009-03-26 08:40:13 51°16.79 2°51.302 11.4 12 7.8 100390 88
2009-03-26 08:40:18 51°16.786 2°51.306 12.5 12 7.8 100390 88
2009-03-26 08:40:23 51°16.783 2°51.31 11.3 12 7.8 100390 88
2009-03-26 08:40:29 51°16.778 2°51.314 12.2 11 7.8 100390 88
2009-03-26 08:40:34 51°16.774 2°51.317 13.2 10 7.8 100390 88
2009-03-26 08:40:38 51°16.771 2°51.32 11.9 10 7.8 100390 88
2009-03-26 08:40:43 51°16.767 2°51.324 10.7 9 7.8 100390 88
2009-03-26 08:40:49 51°16.762 2°51.328 9.9 6 7.8 100390 88
2009-03-26 08:40:54 51°16.758 2°51.331 11.2 9 7.8 100390 88
2009-03-26 08:40:58 51°16.755 2°51.333 11.6 6 7.8 100390 88
2009-03-26 08:41:03 51°16.75 2°51.336 12.1 11 7.8 100390 88
2009-03-26 08:41:09 51°16.746 2°51.34 10.3 9 7.8 100390 88
2009-03-26 08:41:14 51°16.741 2°51.343 9.6 7 7.8 100390 88
2009-03-26 08:41:18 51°16.738 2°51.345 9.8 7 7.8 100390 88
2009-03-26 08:41:23 51°16.734 2°51.348 11.5 7 7.8 100390 88
2009-03-26 08:41:29 51°16.729 2°51.351 10.9 9 7.8 100390 88
2009-03-26 08:41:34 51°16.725 2°51.354 9 7 7.8 100390 88
2009-03-26 08:41:38 51°16.722 2°51.356 11.2 9 7.8 100390 88
2009-03-26 08:41:43 51°16.718 2°51.358 11.3 5 7.8 100390 88
2009-03-26 08:41:48 51°16.713 2°51.361 9.3 5 7.8 100390 88
2009-03-26 08:41:54 51°16.709 2°51.363 8.8 6 7.8 100390 88
2009-03-26 08:41:58 51°16.705 2°51.365 9 4 7.8 100390 88
2009-03-26 08:42:03 51°16.701 2°51.368 9.1 8 7.8 100380 89
2009-03-26 08:42:09 51°16.696 2°51.37 7.8 4 7.8 100380 89
2009-03-26 08:42:13 51°16.693 2°51.372 8.6 5 7.8 100380 89
2009-03-26 08:42:19 51°16.688 2°51.374 8.8 1 7.8 100380 89
2009-03-26 08:42:23 51°16.685 2°51.375 7.4 4 7.8 100380 89
2009-03-26 08:42:29 51°16.68 2°51.378 8.4 5 7.8 100380 89
2009-03-26 08:42:34 51°16.676 2°51.38 9.4 4 7.8 100380 89
2009-03-26 08:42:38 51°16.672 2°51.381 10.9 -999 7.8 100380 89
2009-03-26 08:42:43 51°16.668 2°51.383 9.6 4 7.8 100390 89
2009-03-26 08:42:49 51°16.663 2°51.385 9.2 5 7.8 100390 89
2009-03-26 08:42:53 51°16.66 2°51.386 9.1 2 7.8 100390 89
2009-03-26 08:42:59 51°16.655 2°51.388 9.9 -999 7.8 100390 89
2009-03-26 08:43:03 51°16.651 2°51.39 10.1 360 7.8 100390 89
2009-03-26 08:43:09 51°16.646 2°51.391 10.8 359 7.8 100390 89
2009-03-26 08:43:14 51°16.642 2°51.393 11.1 2 7.8 100380 89
2009-03-26 08:43:18 51°16.638 2°51.393 12.4 356 7.8 100380 89
2009-03-26 08:43:24 51°16.633 2°51.395 11.3 -999 7.9 100380 89
2009-03-26 08:43:29 51°16.629 2°51.396 10.9 2 7.9 100380 89
2009-03-26 08:43:34 51°16.624 2°51.398 11.3 358 7.8 100390 89
2009-03-26 08:43:38 51°16.621 2°51.399 10.5 -999 7.8 100390 89
2009-03-26 08:43:43 51°16.616 2°51.4 11.8 -999 7.9 100380 89
2009-03-26 08:43:49 51°16.611 2°51.402 11.8 358 7.9 100380 89
2009-03-26 08:43:54 51°16.607 2°51.403 12.1 356 7.8 100380 89
2009-03-26 08:43:58 51°16.603 2°51.404 11.7 356 7.8 100380 89
2009-03-26 08:44:03 51°16.599 2°51.405 10.6 357 7.9 100390 89
2009-03-26 08:44:09 51°16.593 2°51.407 11.9 356 7.9 100390 89
2009-03-26 08:44:14 51°16.589 2°51.408 10.6 356 7.9 100390 89
2009-03-26 08:44:18 51°16.585 2°51.409 11.8 356 7.9 100390 89
2009-03-26 08:44:23 51°16.581 2°51.41 10.9 356 7.8 100380 89
2009-03-26 08:44:29 51°16.576 2°51.411 10 357 7.8 100380 89
2009-03-26 08:44:33 51°16.572 2°51.412 11.7 354 7.8 100390 89
2009-03-26 08:44:38 51°16.568 2°51.413 10.3 354 7.8 100390 89
2009-03-26 08:44:43 51°16.563 2°51.414 10.9 353 7.9 100390 89
2009-03-26 08:44:49 51°16.558 2°51.414 11.6 352 7.9 100390 89
2009-03-26 08:44:53 51°16.554 2°51.415 12.5 353 7.9 100380 89
2009-03-26 08:44:58 51°16.55 2°51.415 12 354 7.9 100380 89
2009-03-26 08:45:03 51°16.545 2°51.416 11.7 353 7.9 100380 89
2009-03-26 08:45:09 51°16.54 2°51.416 13.1 352 7.9 100380 89
2009-03-26 08:45:14 51°16.536 2°51.416 11.9 349 7.9 100390 89
2009-03-26 08:45:18 51°16.533 2°51.416 11.1 350 7.9 100390 89
2009-03-26 08:45:23 51°16.528 2°51.416 11.4 351 7.9 100380 89
2009-03-26 08:45:29 51°16.523 2°51.416 11.6 350 7.9 100380 89
2009-03-26 08:45:34 51°16.519 2°51.416 10.8 351 7.9 100390 89
2009-03-26 08:45:38 51°16.516 2°51.415 10.3 347 7.9 100390 89
2009-03-26 08:45:43 51°16.512 2°51.414 11.6 349 7.9 100380 89
2009-03-26 08:45:49 51°16.506 2°51.414 10.2 347 7.9 100380 89
2009-03-26 08:45:54 51°16.502 2°51.413 10.4 344 7.9 100380 89
2009-03-26 08:45:58 51°16.499 2°51.412 10.9 344 7.9 100380 89
2009-03-26 08:46:03 51°16.495 2°51.41 11.2 342 7.9 100380 89
2009-03-26 08:46:09 51°16.49 2°51.408 12.3 343 7.9 100380 89
2009-03-26 08:46:14 51°16.486 2°51.407 12 340 7.9 100380 89
2009-03-26 08:46:18 51°16.482 2°51.405 13 342 7.9 100380 89
2009-03-26 08:46:23 51°16.478 2°51.402 13.6 342 7.9 100390 89
2009-03-26 08:46:29 51°16.474 2°51.399 10.7 282 7.9 100390 89
2009-03-26 08:46:34 51°16.47 2°51.397 14.3 338 7.9 100390 89
2009-03-26 08:46:38 51°16.467 2°51.394 12.5 339 7.9 100390 89
2009-03-26 08:46:43 51°16.462 2°51.391 11.2 337 7.9 100390 89
2009-03-26 08:46:49 51°16.458 2°51.387 13.6 279 7.9 100390 89
2009-03-26 08:46:53 51°16.454 2°51.385 10.8 334 7.9 100390 89
2009-03-26 08:46:59 51°16.45 2°51.381 11.5 283 7.9 100390 89
2009-03-26 08:47:03 51°16.446 2°51.378 11.3 334 8 100390 89
2009-03-26 08:47:08 51°16.443 2°51.374 12.8 332 8 100390 89
2009-03-26 08:47:14 51°16.438 2°51.37 11.7 335 8 100390 89
2009-03-26 08:47:18 51°16.435 2°51.367 9.9 334 8 100390 89
2009-03-26 08:47:23 51°16.431 2°51.364 12.5 338 8 100390 89
2009-03-26 08:47:29 51°16.426 2°51.359 10.2 338 8 100390 89
2009-03-26 08:47:34 51°16.422 2°51.356 11.5 337 8 100390 89
2009-03-26 08:47:38 51°16.418 2°51.353 11.7 283 8 100390 89
2009-03-26 08:47:44 51°16.413 2°51.349 12.2 338 8 100390 89
2009-03-26 08:47:49 51°16.409 2°51.346 11.1 343 8 100390 89
2009-03-26 08:47:54 51°16.405 2°51.343 13.3 342 8 100390 89
2009-03-26 08:47:58 51°16.401 2°51.341 13.2 346 8 100390 89
2009-03-26 08:48:03 51°16.397 2°51.338 13.6 344 8.1 100390 89
2009-03-26 08:48:09 51°16.391 2°51.335 13 345 8.1 100390 89
2009-03-26 08:48:14 51°16.387 2°51.333 12.2 345 8 100400 89
2009-03-26 08:48:18 51°16.383 2°51.331 10.7 341 8 100400 89
2009-03-26 08:48:23 51°16.378 2°51.329 12.8 344 8 100380 89
2009-03-26 08:48:29 51°16.373 2°51.326 11.7 281 8 100380 89
2009-03-26 08:48:34 51°16.368 2°51.323 13 342 8 100390 89
2009-03-26 08:48:38 51°16.365 2°51.322 12.4 339 8 100390 89
2009-03-26 08:48:43 51°16.361 2°51.319 11.7 344 8 100380 89
2009-03-26 08:48:49 51°16.355 2°51.316 13.4 343 8 100380 89
2009-03-26 08:48:54 51°16.351 2°51.313 14.3 341 8 100390 89
2009-03-26 08:48:58 51°16.347 2°51.311 13.2 280 8 100390 89
2009-03-26 08:49:03 51°16.343 2°51.308 13.1 339 8.1 100380 89
2009-03-26 08:49:09 51°16.338 2°51.304 11.7 280 8.1 100380 89
2009-03-26 08:49:14 51°16.334 2°51.301 11.7 337 8.1 100380 89
2009-03-26 08:49:18 51°16.331 2°51.298 11.4 338 8.1 100380 89
2009-03-26 08:49:23 51°16.327 2°51.295 13.3 335 8.1 100390 89
2009-03-26 08:49:29 51°16.323 2°51.29 13 334 8.1 100390 89
2009-03-26 08:49:34 51°16.319 2°51.286 10.9 332 8.1 100390 89
2009-03-26 08:49:38 51°16.316 2°51.283 11.3 283 8.1 100390 89
2009-03-26 08:49:43 51°16.312 2°51.279 10.5 331 8.1 100400 89
2009-03-26 08:49:49 51°16.308 2°51.274 11.6 330 8.1 100400 89
2009-03-26 08:49:54 51°16.305 2°51.269 11.3 327 8.1 100400 89
2009-03-26 08:49:58 51°16.302 2°51.265 13.3 330 8.1 100400 89
2009-03-26 08:50:03 51°16.299 2°51.26 12.9 329 8.1 100400 89
2009-03-26 08:50:09 51°16.295 2°51.254 12.4 326 8.1 100400 89
2009-03-26 08:50:14 51°16.292 2°51.249 11.7 326 8.1 100400 89
2009-03-26 08:50:18 51°16.29 2°51.245 11.3 305 8.1 100400 89
2009-03-26 08:50:24 51°16.286 2°51.238 10.9 321 8.1 100390 89
2009-03-26 08:50:29 51°16.284 2°51.232 11.5 307 8.1 100390 89
2009-03-26 08:50:34 51°16.281 2°51.226 13.6 323 8.1 100390 89
2009-03-26 08:50:38 51°16.279 2°51.222 13.2 304 8.1 100390 89
2009-03-26 08:50:43 51°16.277 2°51.216 11.5 321 8.1 100400 89
2009-03-26 08:50:49 51°16.275 2°51.208 12.1 306 8.1 100400 89
2009-03-26 08:50:54 51°16.273 2°51.202 12.6 320 8.1 100390 89
2009-03-26 08:50:58 51°16.271 2°51.197 13.8 287 8.1 100390 89
2009-03-26 08:51:03 51°16.269 2°51.191 11.4 320 8.1 100400 89
2009-03-26 08:51:09 51°16.267 2°51.184 11.1 282 8.1 100400 89
2009-03-26 08:51:14 51°16.266 2°51.177 11.1 318 8.1 100390 89
2009-03-26 08:51:19 51°16.264 2°51.171 10.3 309 8.1 100390 89
2009-03-26 08:51:23 51°16.262 2°51.166 12.3 318 8.1 100400 89
2009-03-26 08:51:28 51°16.261 2°51.16 13.3 306 8.1 100400 89
2009-03-26 08:51:34 51°16.259 2°51.152 10.5 319 8.1 100390 89
2009-03-26 08:51:38 51°16.257 2°51.147 12.2 306 8.1 100390 89
2009-03-26 08:51:43 51°16.256 2°51.141 15.6 319 8.2 100400 89
2009-03-26 08:51:49 51°16.253 2°51.134 13.1 306 8.2 100400 89
2009-03-26 08:51:54 51°16.251 2°51.128 12.8 324 8.2 100400 89
2009-03-26 08:51:59 51°16.25 2°51.122 12.6 279 8.2 100400 89
2009-03-26 08:52:04 51°16.248 2°51.116 11.9 323 8.2 100400 89
2009-03-26 08:52:09 51°16.245 2°51.11 11.4 305 8.2 100400 89
2009-03-26 08:52:14 51°16.243 2°51.104 13.2 322 8.2 100400 89
2009-03-26 08:52:18 51°16.241 2°51.099 11.7 327 8.2 100400 89
2009-03-26 08:52:23 51°16.239 2°51.093 13.4 323 8.2 100400 89
2009-03-26 08:52:29 51°16.236 2°51.086 12.2 304 8.2 100400 89
2009-03-26 08:52:34 51°16.234 2°51.08 15.5 328 8.2 100400 89
2009-03-26 08:52:38 51°16.232 2°51.075 14.7 328 8.2 100400 89
2009-03-26 08:52:42 51°16.23 2°51.071 12.1 327 8.2 100390 89
2009-03-26 08:52:49 51°16.227 2°51.063 11.9 329 8.2 100390 89
2009-03-26 08:52:54 51°16.224 2°51.058 13.6 327 8.2 100390 89
2009-03-26 08:52:58 51°16.222 2°51.053 12.1 326 8.2 100390 89
2009-03-26 08:53:03 51°16.218 2°51.048 12.4 329 8.2 100390 89
2009-03-26 08:53:09 51°16.215 2°51.041 13.2 330 8.2 100390 89
2009-03-26 08:53:14 51°16.212 2°51.036 14.6 329 8.2 100400 89
2009-03-26 08:53:19 51°16.209 2°51.03 14.2 331 8.2 100400 89
2009-03-26 08:53:23 51°16.207 2°51.026 13.1 332 8.2 100390 89
2009-03-26 08:53:29 51°16.203 2°51.019 14.7 331 8.2 100390 89
2009-03-26 08:53:34 51°16.2 2°51.014 16.7 332 8.2 100400 89
2009-03-26 08:53:38 51°16.197 2°51.01 15.2 333 8.2 100400 89
2009-03-26 08:53:43 51°16.194 2°51.005 13.7 334 8.2 100390 89
2009-03-26 08:53:49 51°16.191 2°50.999 14.9 331 8.2 100390 89
2009-03-26 08:53:53 51°16.188 2°50.995 13.4 332 8.2 100390 89
2009-03-26 08:53:59 51°16.184 2°50.989 15.6 331 8.2 100390 89
2009-03-26 08:54:04 51°16.181 2°50.984 14.6 333 8.2 100390 89
2009-03-26 08:54:09 51°16.177 2°50.979 15.9 331 8.2 100390 89
2009-03-26 08:54:14 51°16.174 2°50.974 13.7 333 8.2 100400 89
2009-03-26 08:54:18 51°16.172 2°50.97 13.6 329 8.2 100400 89
2009-03-26 08:54:23 51°16.168 2°50.965 15.1 327 8.2 100390 89
2009-03-26 08:54:29 51°16.165 2°50.959 15.8 329 8.2 100390 89
2009-03-26 08:54:34 51°16.161 2°50.955 15.4 329 8.2 100390 89
2009-03-26 08:54:38 51°16.159 2°50.951 14.1 331 8.2 100390 89
2009-03-26 08:54:44 51°16.155 2°50.945 15.1 328 8.2 100390 89
2009-03-26 08:54:49 51°16.152 2°50.94 14.7 329 8.2 100390 89
2009-03-26 08:54:54 51°16.149 2°50.935 13.8 329 8.3 100390 89
2009-03-26 08:54:58 51°16.146 2°50.931 17.1 285 8.3 100390 89
2009-03-26 08:55:03 51°16.144 2°50.926 14.6 329 8.3 100390 89
2009-03-26 08:55:09 51°16.14 2°50.92 15.7 330 8.3 100390 89
2009-03-26 08:55:14 51°16.137 2°50.915 14.8 330 8.2 100390 88
2009-03-26 08:55:18 51°16.135 2°50.911 14.1 330 8.2 100390 88
2009-03-26 08:55:23 51°16.132 2°50.906 12.1 330 8.3 100380 88
2009-03-26 08:55:29 51°16.129 2°50.9 11.7 327 8.3 100380 88
2009-03-26 08:55:34 51°16.126 2°50.895 14 326 8.3 100380 88
2009-03-26 08:55:39 51°16.124 2°50.89 11.8 328 8.3 100380 88
2009-03-26 08:55:43 51°16.121 2°50.886 15.3 328 8.3 100390 88
2009-03-26 08:55:48 51°16.119 2°50.88 13.7 302 8.3 100390 88
2009-03-26 08:55:54 51°16.116 2°50.874 11.1 326 8.3 100380 88
2009-03-26 08:55:58 51°16.114 2°50.869 16.1 282 8.3 100380 88
2009-03-26 08:56:03 51°16.111 2°50.864 13.6 323 8.3 100390 88
2009-03-26 08:56:09 51°16.109 2°50.857 12.1 324 8.3 100390 88
2009-03-26 08:56:14 51°16.107 2°50.851 13.3 324 8.3 100390 88
2009-03-26 08:56:19 51°16.104 2°50.846 13.4 327 8.3 100390 88
2009-03-26 08:56:24 51°16.102 2°50.84 12.8 327 8.3 100390 88
2009-03-26 08:56:28 51°16.1 2°50.836 11.8 305 8.3 100390 88
2009-03-26 08:56:34 51°16.097 2°50.829 11.3 324 8.3 100390 88
2009-03-26 08:56:38 51°16.096 2°50.824 11 324 8.3 100390 88